RJNS(METAR)
08/14 21:00
METAR RJNS 141200Z VRB02KT 9999 FEW020 28/27 Q1009 RMK 1CU020 A2982=
戻る
トップページへ戻る
IMOC Co,.Ltd.